Time;durP1;ratioP1;P1;durP2;ratioP2;P2;SDS_P1;SDS_P2;PMS_P1;PMS_P2;Temp;Humidity;BMP_temperature;BMP_pressure;BME280_temperature;BME280_humidity;BME280_pressure;Samples;Min_cycle;Max_cycle;Signal;HPM_P1;HPM_P2
2022/09/19 00:00:29;;;;;;;11.20;7.78;;;;;;;14.26;84.22;97194.28;6102473;29;20067;-69
2022/09/19 00:03:35;;;;;;;10.30;8.05;;;;;;;14.32;84.10;97187.69;6106016;29;20079;-69
2022/09/19 00:06:40;;;;;;;9.90;8.23;;;;;;;14.26;84.05;97183.69;6105966;29;20112;-70
2022/09/19 00:09:41;;;;;;;9.07;7.45;;;;;;;14.17;84.00;97189.69;6106365;29;20074;-70
2022/09/19 00:12:43;;;;;;;10.63;8.20;;;;;;;14.18;84.24;97185.22;6105602;29;20047;-70
2022/09/19 00:15:49;;;;;;;10.32;7.45;;;;;;;14.09;84.33;97192.06;6106163;29;20052;-69
2022/09/19 00:18:53;;;;;;;10.07;7.22;;;;;;;14.10;84.10;97193.75;6105638;29;20048;-69
2022/09/19 00:22:00;;;;;;;10.93;8.38;;;;;;;13.98;84.71;97194.66;6105083;29;20083;-68
2022/09/19 00:25:04;;;;;;;10.80;7.47;;;;;;;13.96;84.38;97196.59;6105575;29;20048;-69
2022/09/19 00:28:11;;;;;;;11.88;9.77;;;;;;;14.00;84.44;97198.03;6105521;29;20048;-69
2022/09/19 00:31:19;;;;;;;10.75;9.25;;;;;;;14.09;83.86;97197.34;6105807;29;20044;-68
2022/09/19 00:34:25;;;;;;;10.45;7.90;;;;;;;14.12;83.58;97199.75;6105301;29;20052;-68
2022/09/19 00:37:26;;;;;;;8.25;6.90;;;;;;;14.11;83.47;97201.56;6105524;29;20721;-70
2022/09/19 00:40:28;;;;;;;10.02;7.70;;;;;;;13.98;83.99;97200.78;6105013;29;20058;-68
2022/09/19 00:43:46;;;;;;;;;;;;;;;13.95;83.82;97206.28;6104122;29;20048;-69
2022/09/19 00:47:05;;;;;;;10.30;6.68;;;;;;;14.04;83.86;97210.06;6104747;29;20393;-70
2022/09/19 00:50:16;;;;;;;10.85;8.48;;;;;;;14.02;83.92;97198.78;6105298;29;20052;-70
2022/09/19 00:53:27;;;;;;;9.57;7.00;;;;;;;14.00;83.67;97208.63;6105054;29;20048;-70
2022/09/19 00:56:32;;;;;;;9.45;7.60;;;;;;;14.06;83.14;97200.22;6104955;29;20050;-70
2022/09/19 00:59:40;;;;;;;9.30;7.80;;;;;;;14.07;83.26;97202.78;6104916;29;20044;-69
2022/09/19 01:02:46;;;;;;;12.18;8.10;;;;;;;14.22;82.24;97205.22;6104641;29;20052;-68
2022/09/19 01:05:50;;;;;;;8.32;7.05;;;;;;;14.11;82.68;97208.66;6104954;29;20051;-69
2022/09/19 01:09:14;;;;;;;9.30;6.65;;;;;;;14.08;82.63;97211.53;6104608;29;20135;-69
2022/09/19 01:12:38;;;;;;;8.52;7.13;;;;;;;14.05;82.62;97207.31;6104130;29;20047;-69
2022/09/19 01:15:40;;;;;;;8.25;6.85;;;;;;;14.10;82.30;97215.78;6104482;29;20066;-70
2022/09/19 01:19:24;;;;;;;10.75;6.32;;;;;;;14.08;81.88;97222.13;6104308;29;20059;-69
2022/09/19 01:22:47;;;;;;;6.80;6.10;;;;;;;14.08;81.79;97232.72;6087920;29;20155;-69
2022/09/19 01:26:07;;;;;;;7.32;5.80;;;;;;;13.91;82.11;97226.84;6104227;29;20054;-69
2022/09/19 01:29:10;;;;;;;7.68;6.03;;;;;;;13.79;82.16;97227.75;6103984;29;20056;-69
2022/09/19 01:32:15;;;;;;;;;;;;;;;13.72;82.12;97225.63;6103570;29;20088;-69
2022/09/19 01:35:16;;;;;;;;;;;;;;;13.75;82.06;97226.25;6104580;29;19919;-69
2022/09/19 01:38:24;;;;;;;8.27;6.55;;;;;;;13.67;82.14;97223.31;6103993;29;20010;-69
2022/09/19 01:41:28;;;;;;;8.35;6.07;;;;;;;13.59;82.34;97223.03;6104012;29;20048;-69
2022/09/19 01:44:33;;;;;;;9.00;7.47;;;;;;;13.52;82.64;97224.41;6103884;29;20044;-70
2022/09/19 01:47:47;;;;;;;8.55;7.13;;;;;;;13.59;82.39;97228.34;6103694;29;20425;-69
2022/09/19 01:51:00;;;;;;;7.72;5.93;;;;;;;13.54;82.41;97233.09;6104105;29;20540;-69
2022/09/19 01:54:21;;;;;;;8.98;6.10;;;;;;;13.45;82.63;97230.16;6103775;29;20146;-69
2022/09/19 01:57:54;;;;;;;7.00;6.30;;;;;;;13.44;82.31;97232.88;6103654;29;20052;-71
2022/09/19 02:01:26;;;;;;;7.53;6.00;;;;;;;13.52;81.96;97240.28;6101100;29;20442;-70
2022/09/19 02:04:41;;;;;;;6.80;5.93;;;;;;;13.43;82.25;97242.63;6103249;29;20052;-69
2022/09/19 02:08:00;;;;;;;7.75;5.75;;;;;;;13.43;82.07;97247.91;6103114;29;20191;-69
2022/09/19 02:11:11;;;;;;;8.23;6.03;;;;;;;13.44;82.26;97249.59;6103264;29;20043;-69
2022/09/19 02:14:21;;;;;;;10.18;6.93;;;;;;;13.50;81.88;97252.75;6102980;29;20055;-69
2022/09/19 02:17:31;;;;;;;12.32;6.97;;;;;;;13.47;81.93;97259.97;6103066;29;20126;-69
2022/09/19 02:20:34;;;;;;;8.10;7.10;;;;;;;13.63;81.13;97253.59;6102648;29;20105;-69
2022/09/19 02:23:47;;;;;;;9.85;7.35;;;;;;;13.57;81.42;97267.25;6101789;29;20188;-69
2022/09/19 02:26:51;;;;;;;9.18;6.90;;;;;;;13.71;81.09;97267.13;6101231;29;20055;-69
2022/09/19 02:29:58;;;;;;;9.93;6.90;;;;;;;13.87;80.55;97266.84;6102048;29;20052;-69
2022/09/19 02:33:07;;;;;;;7.57;6.00;;;;;;;13.93;80.46;97272.56;6102693;29;20410;-69
2022/09/19 02:36:24;;;;;;;10.60;7.10;;;;;;;14.20;79.29;97268.00;6102461;29;20100;-69
2022/09/19 02:39:35;;;;;;;7.93;6.90;;;;;;;14.26;79.12;97271.03;6102458;29;20051;-69
2022/09/19 02:42:53;;;;;;;8.10;6.05;;;;;;;14.36;78.57;97273.88;6101403;29;20052;-69
2022/09/19 02:45:57;;;;;;;8.75;6.53;;;;;;;14.49;77.90;97263.22;6102588;29;20059;-69
2022/09/19 02:49:06;;;;;;;10.20;6.05;;;;;;;14.62;77.53;97279.91;6102133;29;20044;-69
2022/09/19 02:52:17;;;;;;;7.60;6.85;;;;;;;14.72;77.34;97272.97;6101936;29;20135;-69
2022/09/19 02:55:29;;;;;;;9.40;6.05;;;;;;;14.79;76.54;97276.84;6102173;29;20536;-69
2022/09/19 02:58:44;;;;;;;5.78;4.90;;;;;;;14.88;76.53;97277.09;6102377;29;20422;-69
2022/09/19 03:02:00;;;;;;;9.30;6.97;;;;;;;14.99;76.47;97277.13;6101984;29;20135;-69
2022/09/19 03:05:14;;;;;;;10.65;5.28;;;;;;;14.98;76.40;97272.81;6101787;29;20044;-69
2022/09/19 03:08:18;;;;;;;8.82;6.13;;;;;;;14.94;76.45;97274.00;6101283;29;20048;-69
2022/09/19 03:11:26;;;;;;;10.55;5.43;;;;;;;14.94;76.44;97271.34;6102020;29;20047;-69
2022/09/19 03:14:30;;;;;;;6.60;5.53;;;;;;;15.00;75.88;97263.78;6101215;29;20083;-69
2022/09/19 03:17:49;;;;;;;7.13;6.07;;;;;;;14.92;76.64;97270.59;6100299;29;20056;-69
2022/09/19 03:21:01;;;;;;;7.47;5.30;;;;;;;14.95;76.11;97273.03;6101906;29;20052;-69
2022/09/19 03:24:06;;;;;;;8.23;5.35;;;;;;;14.91;76.43;97263.63;6101788;29;20533;-69
2022/09/19 03:27:12;;;;;;;6.13;5.50;;;;;;;14.96;76.31;97272.06;6101739;29;20138;-69
2022/09/19 03:30:20;;;;;;;8.90;5.00;;;;;;;14.99;76.19;97274.50;6101490;29;20048;-69
2022/09/19 03:33:24;;;;;;;7.68;5.20;;;;;;;15.02;75.61;97269.78;6101310;29;20056;-69
2022/09/19 03:36:28;;;;;;;7.30;4.75;;;;;;;15.12;75.32;97280.53;6106665;29;20047;-69
2022/09/19 03:39:32;;;;;;;8.88;5.10;;;;;;;15.15;75.16;97277.66;6109400;29;20131;-69
2022/09/19 03:42:36;;;;;;;;;;;;;;;15.26;74.86;97284.78;6109885;29;20051;-69
2022/09/19 03:45:40;;;;;;;6.50;4.57;;;;;;;15.26;74.82;97285.63;6109042;29;19971;-68
2022/09/19 03:48:44;;;;;;;8.85;4.63;;;;;;;15.32;74.88;97283.47;6108911;29;20055;-68
2022/09/19 03:51:46;;;;;;;6.22;4.93;;;;;;;15.41;74.59;97294.19;6108839;29;20083;-69
2022/09/19 03:54:48;;;;;;;5.28;4.15;;;;;;;15.52;74.00;97298.66;6108996;29;20442;-69
2022/09/19 03:57:52;;;;;;;5.95;4.35;;;;;;;15.60;73.41;97293.63;6108999;29;20055;-68
2022/09/19 04:00:55;;;;;;;5.93;4.43;;;;;;;15.78;72.82;97301.13;6109089;29;20456;-69
2022/09/19 04:03:59;;;;;;;5.60;4.65;;;;;;;15.91;71.78;97304.50;6108996;29;20143;-69
2022/09/19 04:07:04;;;;;;;6.47;4.45;;;;;;;15.94;71.64;97307.72;6108286;29;20052;-69
2022/09/19 04:10:07;;;;;;;6.82;5.70;;;;;;;16.11;70.67;97300.25;6108010;29;20040;-70
2022/09/19 04:13:13;;;;;;;7.10;4.72;;;;;;;16.14;70.51;97295.53;6108796;29;20060;-70
2022/09/19 04:16:17;;;;;;;5.78;3.88;;;;;;;16.23;70.20;97304.56;6107772;29;20430;-70
2022/09/19 04:19:19;;;;;;;6.28;3.78;;;;;;;16.36;69.74;97302.59;6109108;29;20052;-70
2022/09/19 04:22:21;;;;;;;6.18;4.35;;;;;;;16.50;69.41;97309.44;6106987;29;20143;-70
2022/09/19 04:25:32;;;;;;;7.97;4.95;;;;;;;16.67;68.85;97315.16;6108904;29;20454;-70
2022/09/19 04:28:34;;;;;;;6.05;4.60;;;;;;;16.80;68.56;97310.56;6109239;29;20052;-70
2022/09/19 04:31:39;;;;;;;6.50;3.88;;;;;;;16.92;67.98;97314.00;6109161;29;20060;-68
2022/09/19 04:34:43;;;;;;;6.80;4.35;;;;;;;17.11;66.86;97310.66;6108828;29;20533;-69
2022/09/19 04:37:44;;;;;;;5.22;4.70;;;;;;;17.32;65.49;97315.94;6108650;29;20088;-70
2022/09/19 04:40:48;;;;;;;7.45;5.47;;;;;;;17.36;65.08;97314.72;6108819;29;20055;-69
2022/09/19 04:43:50;;;;;;;5.55;4.07;;;;;;;17.42;64.51;97314.22;6108400;29;20048;-69
2022/09/19 04:46:54;;;;;;;5.70;3.83;;;;;;;17.53;64.01;97314.13;6106084;29;20523;-68
2022/09/19 04:50:01;;;;;;;5.93;3.90;;;;;;;17.65;63.68;97306.91;6105038;29;20043;-69
2022/09/19 04:53:03;;;;;;;5.95;4.22;;;;;;;17.87;62.66;97317.41;6104821;29;20537;-69
2022/09/19 04:56:05;;;;;;;4.80;3.80;;;;;;;18.01;61.93;97318.84;6104851;29;20047;-69
2022/09/19 04:59:06;;;;;;;3.63;3.08;;;;;;;18.14;61.28;97313.28;6104778;29;20052;-69
2022/09/19 05:02:08;;;;;;;5.93;3.03;;;;;;;18.25;61.21;97326.47;6104840;29;20570;-69
2022/09/19 05:05:13;;;;;;;4.57;3.20;;;;;;;18.45;59.84;97327.38;6104782;29;20730;-69
2022/09/19 05:08:15;;;;;;;5.38;3.17;;;;;;;18.56;59.58;97329.91;6104679;29;20553;-69
2022/09/19 05:11:21;;;;;;;4.20;3.45;;;;;;;18.71;59.58;97333.03;6104476;29;20063;-68
2022/09/19 05:14:25;;;;;;;4.53;3.78;;;;;;;18.94;58.91;97338.97;6104359;29;20052;-68
2022/09/19 05:17:27;;;;;;;5.90;2.95;;;;;;;19.10;58.78;97333.03;6104101;29;20048;-68
2022/09/19 05:20:29;;;;;;;4.10;2.70;;;;;;;19.26;57.66;97333.31;6104301;29;20103;-68
2022/09/19 05:23:31;;;;;;;3.70;2.72;;;;;;;19.47;57.60;97334.97;6104382;29;20135;-70
2022/09/19 05:26:34;;;;;;;4.80;2.75;;;;;;;19.84;56.32;97332.34;6103803;29;20040;-69
2022/09/19 05:29:39;;;;;;;4.82;2.80;;;;;;;23.06;50.20;97341.66;6103440;29;20058;-70
2022/09/19 05:32:44;;;;;;;4.47;2.90;;;;;;;27.81;38.86;97345.88;6104378;29;20067;-70
2022/09/19 05:35:47;;;;;;;2.35;1.88;;;;;;;31.95;32.20;97351.66;6103854;29;20059;-69
2022/09/19 05:38:52;;;;;;;2.03;1.70;;;;;;;35.52;27.42;97356.16;6104000;29;20110;-69
2022/09/19 05:41:56;;;;;;;2.65;1.83;;;;;;;36.95;24.14;97355.56;6103892;29;20040;-68
2022/09/19 05:45:00;;;;;;;2.03;1.40;;;;;;;38.10;23.25;97357.19;6103543;29;20048;-68
2022/09/19 05:48:06;;;;;;;2.85;1.77;;;;;;;39.42;21.02;97357.00;6104018;29;20192;-68
2022/09/19 05:51:08;;;;;;;3.72;1.38;;;;;;;40.06;19.10;97354.78;6103442;29;20043;-69
2022/09/19 05:54:17;;;;;;;2.42;1.23;;;;;;;40.28;18.19;97354.50;6102273;29;20064;-69
2022/09/19 05:57:18;;;;;;;2.30;1.50;;;;;;;41.21;17.34;97351.13;6103160;29;20058;-69
2022/09/19 06:00:23;;;;;;;1.50;0.90;;;;;;;42.08;16.68;97347.72;6103046;29;20108;-69
2022/09/19 06:03:25;;;;;;;1.92;1.30;;;;;;;42.51;15.63;97352.56;6102699;29;20063;-69
2022/09/19 06:06:29;;;;;;;1.38;0.93;;;;;;;43.13;15.53;97347.91;6102994;29;20044;-68
2022/09/19 06:09:38;;;;;;;1.55;1.05;;;;;;;43.75;14.66;97353.38;6102910;29;20039;-70
2022/09/19 06:12:42;;;;;;;1.55;0.88;;;;;;;44.41;14.05;97345.84;6103059;29;20056;-69
2022/09/19 06:15:46;;;;;;;1.60;1.00;;;;;;;44.91;13.35;97348.72;6102914;29;20126;-70
2022/09/19 06:18:52;;;;;;;1.58;1.00;;;;;;;44.91;13.40;97348.72;6103056;29;20127;-68
2022/09/19 06:21:54;;;;;;;1.38;0.90;;;;;;;44.74;12.52;97343.00;6102684;29;20138;-69
2022/09/19 06:24:56;;;;;;;2.60;0.98;;;;;;;44.17;12.78;97339.66;6102921;29;20520;-69
2022/09/19 06:28:01;;;;;;;3.00;1.17;;;;;;;44.54;12.57;97345.03;6102368;29;20055;-69
2022/09/19 06:31:09;;;;;;;1.50;1.05;;;;;;;44.43;12.88;97338.03;6102814;29;20135;-69
2022/09/19 06:34:14;;;;;;;0.95;0.60;;;;;;;45.08;12.45;97341.72;6102621;29;20093;-69
2022/09/19 06:37:24;;;;;;;2.95;1.00;;;;;;;46.50;11.25;97342.09;6102639;29;20138;-69
2022/09/19 06:40:33;;;;;;;1.92;1.10;;;;;;;47.18;11.61;97345.41;6102362;29;20040;-69
2022/09/19 06:43:37;;;;;;;1.77;0.65;;;;;;;48.76;10.76;97342.03;6102624;29;20048;-69
2022/09/19 06:46:46;;;;;;;1.70;0.75;;;;;;;50.16;9.59;97334.13;6102510;29;20044;-69
2022/09/19 06:49:54;;;;;;;1.75;0.98;;;;;;;49.57;9.16;97326.00;6102283;29;20044;-69
2022/09/19 06:52:59;;;;;;;3.67;0.98;;;;;;;48.99;8.91;97323.00;6102113;29;20044;-68
2022/09/19 06:56:03;;;;;;;2.40;0.95;;;;;;;49.10;9.14;97317.84;6102132;29;20106;-67
2022/09/19 06:59:04;;;;;;;1.52;0.98;;;;;;;49.00;8.67;97324.63;6101824;29;20430;-67
2022/09/19 07:02:11;;;;;;;0.80;0.60;;;;;;;49.26;8.64;97327.25;6101723;29;20134;-67
2022/09/19 07:05:13;;;;;;;1.25;0.50;;;;;;;49.11;8.93;97313.88;6101538;29;20420;-68
2022/09/19 07:08:20;;;;;;;1.38;0.70;;;;;;;49.64;8.43;97327.09;6101878;29;20044;-68
2022/09/19 07:11:22;;;;;;;1.80;0.57;;;;;;;49.16;8.24;97316.47;6101217;29;20052;-69
2022/09/19 07:14:27;;;;;;;0.95;0.65;;;;;;;47.97;8.93;97321.94;6101973;29;20571;-68
2022/09/19 07:17:30;;;;;;;1.20;0.70;;;;;;;47.20;8.74;97312.47;6101852;29;20052;-68
2022/09/19 07:20:38;;;;;;;0.82;0.57;;;;;;;46.91;9.37;97313.91;6101509;29;20050;-68
2022/09/19 07:23:40;;;;;;;1.70;0.60;;;;;;;48.25;8.71;97310.38;6101494;29;20044;-68
2022/09/19 07:26:44;;;;;;;1.70;0.70;;;;;;;48.24;8.26;97297.56;6101619;29;20056;-68
2022/09/19 07:29:46;;;;;;;1.85;0.60;;;;;;;48.10;7.94;97298.59;6101329;29;20043;-67
2022/09/19 07:32:53;;;;;;;2.22;0.70;;;;;;;47.93;8.13;97308.97;6101412;29;20047;-67
2022/09/19 07:35:58;;;;;;;1.38;0.50;;;;;;;48.34;7.78;97298.03;6101356;29;20050;-68
2022/09/19 07:39:02;;;;;;;2.42;0.30;;;;;;;48.42;7.80;97304.72;6101687;29;20167;-68
2022/09/19 07:42:07;;;;;;;1.92;0.50;;;;;;;46.97;8.56;97289.50;6101269;29;20147;-68
2022/09/19 07:45:08;;;;;;;1.42;0.65;;;;;;;46.05;9.03;97297.69;6101427;29;20051;-68
2022/09/19 07:48:13;;;;;;;1.65;0.40;;;;;;;46.32;9.06;97291.13;6101240;29;20047;-69
2022/09/19 07:51:21;;;;;;;1.30;1.00;;;;;;;46.97;8.70;97289.50;6101013;29;20045;-68
2022/09/19 07:54:22;;;;;;;2.35;0.70;;;;;;;46.75;8.70;97287.66;6100953;29;20139;-69
2022/09/19 07:57:26;;;;;;;0.80;0.50;;;;;;;46.62;9.11;97300.53;6101165;29;20040;-68
2022/09/19 08:00:34;;;;;;;4.50;1.00;;;;;;;46.06;9.23;97305.72;6101204;29;20483;-68
2022/09/19 08:03:37;;;;;;;1.45;0.80;;;;;;;45.21;9.61;97279.75;6101417;29;20052;-68
2022/09/19 08:06:42;;;;;;;1.58;0.98;;;;;;;45.29;10.03;97284.56;6100954;29;20047;-68
2022/09/19 08:09:51;;;;;;;0.70;0.70;;;;;;;46.25;9.16;97297.09;6100834;29;20048;-69
2022/09/19 08:13:02;;;;;;;2.38;0.77;;;;;;;45.62;9.89;97279.59;6100997;29;20068;-68
2022/09/19 08:16:04;;;;;;;1.35;0.65;;;;;;;46.06;9.61;97283.47;6100677;29;20447;-69
2022/09/19 08:19:08;;;;;;;1.90;0.90;;;;;;;46.07;9.22;97296.22;6100784;29;20514;-68
2022/09/19 08:22:13;;;;;;;1.17;0.88;;;;;;;45.14;9.86;97280.19;6102007;29;20143;-68
2022/09/19 08:25:17;;;;;;;0.65;0.63;;;;;;;45.13;10.10;97272.13;6105360;29;20044;-68
2022/09/19 08:28:21;;;;;;;1.55;0.70;;;;;;;45.28;10.15;97280.16;6105154;29;20087;-68
2022/09/19 08:31:28;;;;;;;0.75;0.55;;;;;;;44.48;10.42;97282.44;6105101;29;20502;-68
2022/09/19 08:34:31;;;;;;;1.63;0.70;;;;;;;44.95;10.65;97274.75;6105078;29;20048;-68
2022/09/19 08:37:35;;;;;;;2.50;1.23;;;;;;;44.55;11.00;97277.28;6105419;29;20503;-69
2022/09/19 08:40:46;;;;;;;0.95;0.90;;;;;;;44.35;11.02;97277.72;6105094;29;20040;-69
2022/09/19 08:43:50;;;;;;;2.80;0.80;;;;;;;44.94;10.52;97275.91;6105403;29;20048;-69
2022/09/19 08:47:00;;;;;;;1.40;1.10;;;;;;;44.56;10.49;97270.63;6104663;29;20052;-69
2022/09/19 08:50:12;;;;;;;3.42;0.95;;;;;;;44.03;10.79;97268.34;6104980;29;20044;-70
2022/09/19 08:53:23;;;;;;;2.08;1.00;;;;;;;44.03;10.54;97262.78;6103363;29;20091;-69
2022/09/19 08:56:29;;;;;;;1.75;0.98;;;;;;;43.88;10.38;97265.81;6103832;29;20502;-69
2022/09/19 08:59:37;;;;;;;3.85;1.13;;;;;;;43.97;10.42;97269.56;6104722;29;20039;-69
2022/09/19 09:03:01;;;;;;;3.00;1.20;;;;;;;44.58;10.35;97265.56;6104739;29;20521;-68
2022/09/19 09:06:26;;;;;;;1.38;0.80;;;;;;;44.73;9.88;97258.88;6104856;29;20048;-69
2022/09/19 09:09:46;;;;;;;1.10;0.82;;;;;;;43.04;11.10;97253.59;6099224;29;20052;-68
2022/09/19 09:13:01;;;;;;;1.80;0.70;;;;;;;42.48;11.68;97248.03;6104047;29;20048;-68
2022/09/19 09:16:15;;;;;;;1.90;1.30;;;;;;;42.68;11.65;97244.97;6104322;29;20191;-68
2022/09/19 09:19:38;;;;;;;2.95;1.20;;;;;;;42.85;11.14;97235.38;6104345;29;20056;-68
2022/09/19 09:23:01;;;;;;;2.70;0.77;;;;;;;41.82;11.92;97228.28;6104217;29;20100;-68
2022/09/19 09:26:12;;;;;;;1.52;1.08;;;;;;;41.04;11.77;97229.19;6104035;29;20044;-69
2022/09/19 09:29:25;;;;;;;1.33;0.90;;;;;;;38.19;14.21;97215.47;6104290;29;20047;-69
2022/09/19 09:32:33;;;;;;;1.88;1.33;;;;;;;35.65;16.46;97212.72;6103276;29;20056;-69
2022/09/19 09:35:41;;;;;;;2.40;1.10;;;;;;;34.53;17.44;97226.06;6103980;29;20395;-69
2022/09/19 09:38:51;;;;;;;1.65;1.33;;;;;;;35.50;16.54;97218.72;6103821;29;20060;-69
2022/09/19 09:42:03;;;;;;;1.73;1.00;;;;;;;36.77;15.57;97227.00;6103867;29;20040;-69
2022/09/19 09:45:33;;;;;;;1.00;0.90;;;;;;;37.06;15.50;97225.69;6103768;29;20051;-68
2022/09/19 09:48:41;;;;;;;2.17;1.33;;;;;;;35.85;16.49;97220.38;6103678;29;20060;-69
2022/09/19 09:51:54;;;;;;;4.25;2.55;;;;;;;35.42;16.97;97227.41;6103731;29;20077;-69
2022/09/19 09:58:39;;;;;;;1.27;0.95;;;;;;;37.20;15.63;97227.97;6103497;29;20044;-70
2022/09/19 10:05:33;;;;;;;1.85;1.15;;;;;;;36.42;16.02;97230.97;6103224;29;20075;-69
2022/09/19 10:08:43;;;;;;;2.50;1.60;;;;;;;35.93;16.30;97211.72;6102895;29;20052;-69
2022/09/19 10:12:14;;;;;;;3.25;2.50;;;;;;;35.46;17.06;97212.13;6103126;29;20040;-70
2022/09/19 10:15:20;;;;;;;3.60;2.03;;;;;;;35.51;17.29;97214.94;6084648;29;20278;-69
2022/09/19 10:18:28;;;;;;;1.98;1.50;;;;;;;35.22;17.22;97223.25;6103174;29;20047;-69
2022/09/19 10:21:38;;;;;;;2.17;1.60;;;;;;;34.83;17.63;97208.59;6103094;29;20040;-69
2022/09/19 10:24:47;;;;;;;1.70;1.30;;;;;;;34.91;17.70;97205.47;6103145;29;20058;-69
2022/09/19 10:27:49;;;;;;;2.67;1.63;;;;;;;35.40;17.19;97218.59;6102862;29;20063;-68
2022/09/19 10:31:00;;;;;;;3.53;1.85;;;;;;;34.92;17.88;97198.91;6102840;29;20044;-69
2022/09/19 10:34:23;;;;;;;1.60;1.50;;;;;;;34.78;17.90;97206.59;6102628;29;20052;-68
2022/09/19 10:37:28;;;;;;;3.67;2.65;;;;;;;34.45;18.06;97196.38;6102518;29;20080;-69
2022/09/19 10:40:36;;;;;;;3.25;2.58;;;;;;;33.77;18.86;97197.97;6102443;29;20506;-69
2022/09/19 10:43:49;;;;;;;3.67;1.55;;;;;;;33.08;19.48;97205.91;6102133;29;20134;-68
2022/09/19 10:46:56;;;;;;;1.70;1.25;;;;;;;32.56;20.48;97201.00;6101667;29;20457;-69
2022/09/19 10:50:02;;;;;;;2.28;1.85;;;;;;;32.50;20.55;97201.09;6116508;29;20044;-69
2022/09/19 10:53:26;;;;;;;2.33;1.60;;;;;;;32.71;19.90;97208.75;6102085;29;20044;-69
2022/09/19 10:56:33;;;;;;;2.35;1.60;;;;;;;32.85;19.43;97214.84;6102023;29;20048;-69
2022/09/19 10:59:40;;;;;;;5.45;3.20;;;;;;;32.89;19.97;97205.13;6102001;29;20564;-69
2022/09/19 11:02:42;;;;;;;3.03;1.60;;;;;;;33.10;19.54;97198.31;6101870;29;20048;-69
2022/09/19 11:05:44;;;;;;;5.15;3.13;;;;;;;33.32;19.13;97198.59;6101913;29;20044;-69
2022/09/19 11:08:48;;;;;;;4.95;2.65;;;;;;;32.90;19.64;97205.97;6101911;29;20593;-69
2022/09/19 11:12:01;;;;;;;2.38;1.30;;;;;;;32.07;20.38;97194.72;6101430;29;20060;-70
2022/09/19 11:15:15;;;;;;;1.90;1.17;;;;;;;31.41;21.57;97198.16;6101715;29;20625;-69
2022/09/19 11:18:49;;;;;;;1.33;0.90;;;;;;;30.85;22.31;97194.41;6101735;29;20051;-69
2022/09/19 11:22:32;;;;;;;4.28;2.10;;;;;;;30.63;22.68;97202.03;6101855;29;20131;-70
2022/09/19 11:26:00;;;;;;;4.13;3.13;;;;;;;30.07;22.89;97202.75;6100663;29;20044;-69
2022/09/19 11:29:02;;;;;;;7.80;3.85;;;;;;;29.74;23.70;97203.69;6101693;29;20501;-69
2022/09/19 11:32:35;;;;;;;5.80;3.33;;;;;;;29.76;23.47;97217.88;6100245;29;20052;-69
2022/09/19 11:35:48;;;;;;;3.72;3.03;;;;;;;29.64;23.76;97215.00;6101484;29;20560;-69
2022/09/19 11:39:03;;;;;;;3.67;1.80;;;;;;;29.85;23.95;97210.34;6100958;29;20055;-69
2022/09/19 11:42:31;;;;;;;4.18;1.98;;;;;;;30.08;23.49;97198.97;6101330;29;20414;-69
2022/09/19 11:45:50;;;;;;;2.47;1.40;;;;;;;29.82;23.90;97219.75;6101332;29;20059;-69
2022/09/19 11:49:18;;;;;;;1.77;1.67;;;;;;;29.62;23.92;97208.09;6101295;29;20112;-69
2022/09/19 11:52:57;;;;;;;1.92;1.50;;;;;;;29.60;24.07;97218.28;6101303;29;20422;-69
2022/09/19 11:56:17;;;;;;;1.85;1.25;;;;;;;29.68;23.81;97215.41;6101782;29;20130;-70
2022/09/19 11:59:54;;;;;;;2.30;1.50;;;;;;;29.73;23.89;97218.31;6105971;29;20051;-70
2022/09/19 12:03:38;;;;;;;3.05;1.95;;;;;;;29.71;24.35;97209.53;6098736;29;20139;-68
2022/09/19 12:06:58;;;;;;;3.22;2.13;;;;;;;29.39;24.85;97212.09;6105566;29;20036;-69
2022/09/19 12:10:32;;;;;;;3.55;1.40;;;;;;;29.26;24.78;97214.78;6105553;29;20047;-69
2022/09/19 12:13:41;;;;;;;2.80;1.50;;;;;;;29.07;25.39;97220.03;6105398;29;20067;-69
2022/09/19 12:16:52;;;;;;;3.20;1.48;;;;;;;28.96;25.13;97215.19;6105341;29;20044;-70
2022/09/19 12:27:04;;;;;;;2.47;1.30;;;;;;;29.26;24.91;97228.34;6105112;29;20051;-68
2022/09/19 12:30:19;;;;;;;3.90;1.98;;;;;;;29.31;24.61;97215.84;6104948;29;20044;-69
2022/09/19 12:33:39;;;;;;;3.22;2.08;;;;;;;29.28;24.95;97218.13;6105114;29;20581;-69
2022/09/19 12:36:43;;;;;;;3.80;1.98;;;;;;;29.18;24.76;97209.59;6104997;29;20072;-69
2022/09/19 12:39:52;;;;;;;3.72;2.15;;;;;;;29.11;25.10;97225.03;6104871;29;20044;-68
2022/09/19 12:43:16;;;;;;;2.25;1.65;;;;;;;29.02;25.01;97222.50;6104669;29;20036;-68
2022/09/19 12:46:50;;;;;;;4.55;2.00;;;;;;;28.81;25.35;97219.97;6104262;29;20532;-69
2022/09/19 12:50:01;;;;;;;2.78;1.77;;;;;;;28.57;25.61;97219.50;6104431;29;20079;-70
2022/09/19 12:53:11;;;;;;;2.67;1.67;;;;;;;28.37;25.82;97218.59;6104150;29;20537;-69
2022/09/19 12:56:32;;;;;;;2.72;1.42;;;;;;;28.43;26.03;97212.41;6104340;29;20059;-69
2022/09/19 12:59:40;;;;;;;3.40;1.60;;;;;;;28.22;26.13;97218.75;6104381;29;20093;-69
2022/09/19 13:03:08;;;;;;;4.30;1.60;;;;;;;28.14;26.31;97219.78;6104486;29;20131;-69
2022/09/19 13:06:30;;;;;;;2.90;1.90;;;;;;;28.08;26.43;97215.19;6104001;29;20116;-69
2022/09/19 13:09:41;;;;;;;2.47;1.30;;;;;;;28.02;26.36;97218.66;6103068;29;20136;-69
2022/09/19 13:13:32;;;;;;;3.65;1.90;;;;;;;27.81;26.70;97216.09;6103981;29;20048;-69
2022/09/19 13:23:30;;;;;;;2.78;1.80;;;;;;;27.78;26.56;97222.69;6095208;29;20056;-69
2022/09/19 13:23:38;;;;;;;2.92;1.98;;;;;;;27.48;26.81;97216.69;6103377;29;20091;-70
2022/09/19 13:26:42;;;;;;;1.60;1.33;;;;;;;27.15;27.43;97211.00;6103746;29;20040;-69
2022/09/19 13:29:46;;;;;;;4.22;1.35;;;;;;;26.97;27.56;97216.91;6103273;29;20044;-68
2022/09/19 13:32:55;;;;;;;2.97;1.45;;;;;;;26.75;28.00;97211.53;6102086;29;20055;-70
2022/09/19 13:36:07;;;;;;;2.63;1.45;;;;;;;26.46;28.11;97214.28;6102159;29;20048;-70
2022/09/19 13:39:46;;;;;;;5.25;2.45;;;;;;;26.25;28.58;97220.50;6103299;29;20044;-70
2022/09/19 13:43:15;;;;;;;6.40;2.47;;;;;;;25.95;29.20;97213.28;6100256;29;20040;-68
2022/09/19 13:46:32;;;;;;;3.78;2.10;;;;;;;25.92;28.97;97215.53;6103279;29;20196;-69
2022/09/19 13:49:55;;;;;;;4.80;1.88;;;;;;;25.67;29.44;97220.34;6103493;29;20050;-69
2022/09/19 13:53:06;;;;;;;3.20;1.77;;;;;;;25.43;29.60;97224.16;6103491;29;20515;-69
2022/09/19 13:56:34;;;;;;;4.22;1.65;;;;;;;25.22;30.17;97228.44;6103295;29;20052;-69
2022/09/19 13:59:48;;;;;;;3.20;1.73;;;;;;;25.08;30.34;97227.34;6102642;29;20538;-69
2022/09/19 14:03:18;;;;;;;5.40;1.75;;;;;;;24.95;30.56;97232.50;6102420;29;20055;-69
2022/09/19 14:06:27;;;;;;;4.13;1.80;;;;;;;24.70;30.91;97233.72;6102928;29;20479;-71
2022/09/19 14:09:42;;;;;;;4.75;1.90;;;;;;;24.55;30.78;97237.19;6101674;29;20044;-70
2022/09/19 14:12:45;;;;;;;3.55;1.80;;;;;;;24.37;31.18;97239.25;6102841;29;20063;-69
2022/09/19 14:15:47;;;;;;;;;;;;;;;24.33;31.22;97238.78;6102881;29;20056;-68
2022/09/19 14:18:54;;;;;;;5.38;2.42;;;;;;;24.14;32.00;97244.59;6102299;29;19929;-69
2022/09/19 14:21:59;;;;;;;3.55;1.65;;;;;;;23.94;32.20;97236.97;6102417;29;20127;-69
2022/09/19 14:25:21;;;;;;;7.85;2.10;;;;;;;23.74;32.15;97251.81;6102391;29;20040;-70
2022/09/19 14:28:47;;;;;;;2.85;1.90;;;;;;;23.70;32.24;97256.72;6102409;29;20047;-70
2022/09/19 14:32:11;;;;;;;3.03;1.98;;;;;;;23.64;32.53;97257.38;6102430;29;20445;-70
2022/09/19 14:35:15;;;;;;;1.90;1.50;;;;;;;23.48;32.74;97260.09;6102104;29;20052;-69
2022/09/19 14:38:34;;;;;;;4.20;1.93;;;;;;;23.19;33.37;97256.13;6102420;29;20052;-69
2022/09/19 14:41:53;;;;;;;3.65;1.88;;;;;;;23.09;33.33;97266.19;6101962;29;20490;-69
2022/09/19 14:45:16;;;;;;;5.35;1.92;;;;;;;22.88;33.73;97255.09;6102159;29;20514;-70
2022/09/19 14:48:33;;;;;;;5.97;2.20;;;;;;;22.73;34.19;97263.81;6102186;29;20107;-71
2022/09/19 14:51:40;;;;;;;5.00;3.08;;;;;;;22.54;34.84;97261.44;6102060;29;20044;-68
2022/09/19 14:54:44;;;;;;;7.47;3.17;;;;;;;22.47;35.05;97271.13;6101717;29;20514;-69
2022/09/19 14:57:53;;;;;;;7.45;2.78;;;;;;;22.33;35.03;97265.38;6101869;29;20048;-69
2022/09/19 15:01:14;;;;;;;12.45;7.95;;;;;;;22.11;38.88;97271.34;6101829;29;20056;-68
2022/09/19 15:04:22;;;;;;;13.52;6.20;;;;;;;21.81;38.82;97276.22;6101795;29;20060;-70
2022/09/19 15:07:32;;;;;;;7.40;3.55;;;;;;;21.62;38.88;97281.81;6101528;29;20079;-68
2022/09/19 15:10:40;;;;;;;16.70;9.18;;;;;;;21.37;40.80;97278.16;6101652;29;20583;-69
2022/09/19 15:13:49;;;;;;;8.93;3.28;;;;;;;21.41;38.80;97272.34;6101477;29;20517;-70